x

Matinicus Rock, Me (mism1) Weather Station

2:00pm - Sun 25th Jun 2017 All times are EDT. -4 hours from GMT.

  • Wind
    20mph, 20mph gusts
  • Air Temp 60°f
  • Sea Pressure 1011.7mb
  • Matinicus Rock, Me
  • Matinicus Rock, Me

More Historic Weather Station data

Upgrade to MSW Pro to gain access to the past 30 days of data for over 8000 Wavebouys and Weather Stations around the globe.

Join Pro

Comparision Forecast

View Surf forecast
   
Sun 06/25 2:00pm 20 20 mph 1011.7mb 60f
1:00pm 21 21 mph 1011.8mb 59f
12:00pm 13 14 mph 1012mb 59f
11:00am 15 15 mph 1012.1mb 58f
10:00am 11 11 mph 1012.3mb 58f
9:00am 8 8 mph 1011.9mb 59f
8:00am 8 9 mph 1011.6mb 58f
7:00am 14 14 mph 1010.9mb 62f
6:00am 14 14 mph 1010.1mb 61f
5:00am 16 17 mph 1009.5mb 62f
4:00am 16 17 mph 1008.7mb 66f
3:00am 16 16 mph 1008.6mb 68f
2:00am 16 16 mph 1008.2mb 61f
1:00am 18 20 mph 1007.8mb 60f
12:00am 22 22 mph 1007mb 65f
Sat 06/24 11:00pm 20 20 mph 1006.5mb 63f
10:00pm 18 18 mph 1005.9mb 62f
9:00pm 22 22 mph 1004.7mb 65f
8:00pm 18 20 mph 1003.9mb 65f
7:00pm 22 23 mph 1003.2mb 65f
6:00pm 21 22 mph 1002.2mb 61f
5:00pm 14 14 mph 1001.6mb 59f
4:00pm 17 18 mph 1000.6mb 60f
3:00pm 10 10 mph 1000.7mb 60f
2:00pm 16 17 mph 1000.4mb 59f
1:00pm 18 20 mph 1000.1mb 61f
12:00pm 21 22 mph 999.8mb 59f
11:00am 23 23 mph 999.4mb 59f
10:00am 29 31 mph 998mb 60f
9:00am 29 30 mph 998mb 59f
8:00am 29 30 mph 997.6mb 59f
7:00am 28 30 mph 998mb 59f
6:00am 28 30 mph 997.9mb 58f
5:00am 30 31 mph 997.9mb 59f
4:00am 26 29 mph 998.5mb 59f
3:00am 32 33 mph 998.8mb 59f
2:00am 26 28 mph 999.6mb 59f
1:00am 29 30 mph 1000mb 59f
12:00am 26 28 mph 1000.6mb 58f
Fri 06/23 11:00pm 28 29 mph 1001.2mb 58f
10:00pm 30 31 mph 1001.8mb 58f
9:00pm 31 34 mph 1001.9mb 58f
8:00pm 28 29 mph 1002.7mb 58f
7:00pm 22 23 mph 1003.2mb 58f
6:00pm 8 10 mph 1003.8mb 58f
5:00pm 15 16 mph 1004.5mb 59f
4:00pm 13 14 mph 1005.6mb 58f
3:00pm 10 11 mph 1006.1mb 57f
2:00pm 18 20 mph 1006.7mb 56f
1:00pm 17 18 mph 1007.4mb 56f
12:00pm 15 15 mph 1008.5mb 56f
11:00am 9 10 mph 1009mb 56f
10:00am 15 16 mph 1008.6mb 56f
9:00am 16 16 mph 1009.1mb 56f
8:00am 11 15 mph 1011mb 56f
7:00am 9 9 mph 1009.5mb 60f
6:00am 10 11 mph 1009.6mb 59f
5:00am 7 8 mph 1009.4mb 58f
4:00am 7 8 mph 1009.4mb 62f
3:00am 8 8 mph 1010mb 59f
2:00am 6 6 mph 1010.4mb 60f
1:00am 6 6 mph 1011.4mb 60f
12:00am 7 7 mph 1011.6mb 60f
Thu 06/22 11:00pm 10 11 mph 1011.6mb 60f
10:00pm 10 10 mph 1011.6mb 59f
9:00pm 20 20 mph 1011.3mb 59f
8:00pm 20 21 mph 1011mb 59f
7:00pm 24 24 mph 1010.3mb 60f
6:00pm 23 24 mph 1010.6mb 60f
5:00pm 22 24 mph 1010.9mb 60f
4:00pm 22 23 mph 1010.6mb 59f
3:00pm 21 21 mph 1011.3mb 59f
2:00pm 23 23 mph 1011.7mb 62f
1:00pm 20 20 mph 1012.4mb 58f
12:00pm 18 20 mph 1012.4mb 58f
11:00am 16 17 mph 1012.7mb 58f
10:00am 18 20 mph 1012.9mb 59f
9:00am 15 15 mph 1012.8mb 58f
8:00am 16 17 mph 1013mb 59f
7:00am 11 13 mph 1012.5mb 57f
6:00am 10 10 mph 1011.9mb 62f
5:00am 10 10 mph 1011.6mb 62f
4:00am 11 11 mph 1011.2mb 62f
3:00am 14 15 mph 1011mb 62f
2:00am 22 23 mph 1010.7mb 65f
1:00am 20 21 mph 1010.6mb 63f
12:00am 17 17 mph 1010.1mb 64f
Wed 06/21 11:00pm 18 20 mph 1009.9mb 63f
10:00pm 10 13 mph 1009.5mb 61f
9:00pm 14 15 mph 1008.8mb 62f
8:00pm 21 21 mph 1008.3mb 60f